sensor_id;sensor_type;location;lat;lon;timestamp;P1;durP1;ratioP1;P2;durP2;ratioP2
12493;SDS011;8260;51.422;6.786;2022-11-15T00:01:14;10.07;;;7.95;;
12493;SDS011;8260;51.422;6.786;2022-11-15T00:03:44;8.93;;;8.02;;
12493;SDS011;8260;51.422;6.786;2022-11-15T00:06:12;11.07;;;7.93;;
12493;SDS011;8260;51.422;6.786;2022-11-15T00:08:41;10.52;;;8.18;;
12493;SDS011;8260;51.422;6.786;2022-11-15T00:11:10;10.27;;;8.02;;
12493;SDS011;8260;51.422;6.786;2022-11-15T00:13:40;12.10;;;8.45;;
12493;SDS011;8260;51.422;6.786;2022-11-15T00:16:10;10.25;;;8.73;;
12493;SDS011;8260;51.422;6.786;2022-11-15T00:18:38;9.55;;;8.55;;
12493;SDS011;8260;51.422;6.786;2022-11-15T00:21:14;9.50;;;8.02;;
12493;SDS011;8260;51.422;6.786;2022-11-15T00:23:43;10.50;;;8.30;;
12493;SDS011;8260;51.422;6.786;2022-11-15T00:26:12;11.02;;;8.98;;
12493;SDS011;8260;51.422;6.786;2022-11-15T00:28:41;10.90;;;8.20;;
12493;SDS011;8260;51.422;6.786;2022-11-15T00:31:11;9.77;;;8.18;;
12493;SDS011;8260;51.422;6.786;2022-11-15T00:33:42;11.75;;;8.93;;
12493;SDS011;8260;51.422;6.786;2022-11-15T00:36:10;10.27;;;8.45;;
12493;SDS011;8260;51.422;6.786;2022-11-15T00:38:39;10.32;;;8.60;;
12493;SDS011;8260;51.422;6.786;2022-11-15T00:41:07;10.57;;;8.27;;
12493;SDS011;8260;51.422;6.786;2022-11-15T00:43:36;9.27;;;7.60;;
12493;SDS011;8260;51.422;6.786;2022-11-15T00:46:06;10.20;;;8.30;;
12493;SDS011;8260;51.422;6.786;2022-11-15T00:48:37;9.52;;;7.90;;
12493;SDS011;8260;51.422;6.786;2022-11-15T00:51:05;12.20;;;8.18;;
12493;SDS011;8260;51.422;6.786;2022-11-15T00:53:34;9.55;;;7.68;;
12493;SDS011;8260;51.422;6.786;2022-11-15T00:56:02;11.40;;;7.97;;
12493;SDS011;8260;51.422;6.786;2022-11-15T00:58:31;8.85;;;7.95;;
12493;SDS011;8260;51.422;6.786;2022-11-15T01:01:06;9.00;;;7.75;;
12493;SDS011;8260;51.422;6.786;2022-11-15T01:03:34;8.48;;;7.50;;
12493;SDS011;8260;51.422;6.786;2022-11-15T01:06:05;10.52;;;7.93;;
12493;SDS011;8260;51.422;6.786;2022-11-15T01:08:33;11.88;;;7.88;;
12493;SDS011;8260;51.422;6.786;2022-11-15T01:11:02;9.88;;;7.80;;
12493;SDS011;8260;51.422;6.786;2022-11-15T01:13:31;10.27;;;8.00;;
12493;SDS011;8260;51.422;6.786;2022-11-15T01:16:04;9.27;;;8.07;;
12493;SDS011;8260;51.422;6.786;2022-11-15T01:18:33;12.23;;;8.75;;
12493;SDS011;8260;51.422;6.786;2022-11-15T01:21:05;9.10;;;7.57;;
12493;SDS011;8260;51.422;6.786;2022-11-15T01:23:34;9.48;;;8.10;;
12493;SDS011;8260;51.422;6.786;2022-11-15T01:26:03;9.13;;;6.82;;
12493;SDS011;8260;51.422;6.786;2022-11-15T01:28:32;10.25;;;8.02;;
12493;SDS011;8260;51.422;6.786;2022-11-15T01:31:01;10.45;;;8.35;;
12493;SDS011;8260;51.422;6.786;2022-11-15T01:33:30;10.10;;;7.40;;
12493;SDS011;8260;51.422;6.786;2022-11-15T01:36:02;11.18;;;7.70;;
12493;SDS011;8260;51.422;6.786;2022-11-15T01:38:32;8.95;;;7.85;;
12493;SDS011;8260;51.422;6.786;2022-11-15T01:41:01;7.95;;;7.05;;
12493;SDS011;8260;51.422;6.786;2022-11-15T01:43:30;10.52;;;7.68;;
12493;SDS011;8260;51.422;6.786;2022-11-15T01:46:00;10.05;;;7.88;;
12493;SDS011;8260;51.422;6.786;2022-11-15T01:48:30;8.70;;;6.95;;
12493;SDS011;8260;51.422;6.786;2022-11-15T01:51:00;10.07;;;7.45;;
12493;SDS011;8260;51.422;6.786;2022-11-15T01:53:29;10.10;;;7.45;;
12493;SDS011;8260;51.422;6.786;2022-11-15T01:55:59;8.55;;;7.15;;
12493;SDS011;8260;51.422;6.786;2022-11-15T01:58:30;9.85;;;7.50;;
12493;SDS011;8260;51.422;6.786;2022-11-15T02:00:59;8.13;;;7.15;;
12493;SDS011;8260;51.422;6.786;2022-11-15T02:03:30;10.52;;;8.07;;
12493;SDS011;8260;51.422;6.786;2022-11-15T02:06:00;10.90;;;6.88;;
12493;SDS011;8260;51.422;6.786;2022-11-15T02:08:28;8.98;;;7.30;;
12493;SDS011;8260;51.422;6.786;2022-11-15T02:10:57;8.05;;;7.13;;
12493;SDS011;8260;51.422;6.786;2022-11-15T02:13:26;9.75;;;7.32;;
12493;SDS011;8260;51.422;6.786;2022-11-15T02:15:58;8.23;;;7.38;;
12493;SDS011;8260;51.422;6.786;2022-11-15T02:18:30;7.93;;;7.13;;
12493;SDS011;8260;51.422;6.786;2022-11-15T02:21:12;9.43;;;7.43;;
12493;SDS011;8260;51.422;6.786;2022-11-15T02:23:53;9.77;;;7.05;;
12493;SDS011;8260;51.422;6.786;2022-11-15T02:29:28;9.65;;;7.15;;
12493;SDS011;8260;51.422;6.786;2022-11-15T02:32:02;8.95;;;7.05;;
12493;SDS011;8260;51.422;6.786;2022-11-15T02:34:33;10.63;;;6.45;;
12493;SDS011;8260;51.422;6.786;2022-11-15T02:37:03;9.60;;;7.28;;
12493;SDS011;8260;51.422;6.786;2022-11-15T02:39:35;7.82;;;6.70;;
12493;SDS011;8260;51.422;6.786;2022-11-15T02:42:07;8.75;;;6.72;;
12493;SDS011;8260;51.422;6.786;2022-11-15T02:44:57;11.18;;;7.15;;
12493;SDS011;8260;51.422;6.786;2022-11-15T02:47:27;9.55;;;7.03;;
12493;SDS011;8260;51.422;6.786;2022-11-15T02:49:58;9.52;;;7.68;;
12493;SDS011;8260;51.422;6.786;2022-11-15T02:52:28;8.77;;;6.85;;
12493;SDS011;8260;51.422;6.786;2022-11-15T02:54:57;9.13;;;6.63;;
12493;SDS011;8260;51.422;6.786;2022-11-15T02:57:29;8.98;;;6.90;;
12493;SDS011;8260;51.422;6.786;2022-11-15T03:00:05;8.48;;;6.80;;
12493;SDS011;8260;51.422;6.786;2022-11-15T03:02:42;10.38;;;6.72;;
12493;SDS011;8260;51.422;6.786;2022-11-15T03:05:15;8.30;;;6.82;;
12493;SDS011;8260;51.422;6.786;2022-11-15T03:07:48;8.18;;;7.22;;
12493;SDS011;8260;51.422;6.786;2022-11-15T03:10:26;12.15;;;7.35;;
12493;SDS011;8260;51.422;6.786;2022-11-15T03:12:57;9.77;;;6.90;;
12493;SDS011;8260;51.422;6.786;2022-11-15T03:15:27;7.82;;;6.97;;
12493;SDS011;8260;51.422;6.786;2022-11-15T03:17:59;8.40;;;6.85;;
12493;SDS011;8260;51.422;6.786;2022-11-15T03:20:28;9.80;;;7.30;;
12493;SDS011;8260;51.422;6.786;2022-11-15T03:23:00;8.30;;;7.40;;
12493;SDS011;8260;51.422;6.786;2022-11-15T03:25:29;8.75;;;7.03;;
12493;SDS011;8260;51.422;6.786;2022-11-15T03:27:58;10.10;;;7.95;;
12493;SDS011;8260;51.422;6.786;2022-11-15T03:30:29;9.02;;;7.30;;
12493;SDS011;8260;51.422;6.786;2022-11-15T03:33:00;10.60;;;7.05;;
12493;SDS011;8260;51.422;6.786;2022-11-15T03:35:30;9.32;;;8.13;;
12493;SDS011;8260;51.422;6.786;2022-11-15T03:38:03;8.48;;;7.60;;
12493;SDS011;8260;51.422;6.786;2022-11-15T03:40:36;8.45;;;7.40;;
12493;SDS011;8260;51.422;6.786;2022-11-15T03:43:07;10.50;;;7.50;;
12493;SDS011;8260;51.422;6.786;2022-11-15T03:45:39;8.52;;;7.72;;
12493;SDS011;8260;51.422;6.786;2022-11-15T03:48:12;8.63;;;7.70;;
12493;SDS011;8260;51.422;6.786;2022-11-15T03:50:41;9.32;;;7.57;;
12493;SDS011;8260;51.422;6.786;2022-11-15T03:53:11;8.27;;;7.30;;
12493;SDS011;8260;51.422;6.786;2022-11-15T03:55:40;10.10;;;7.47;;
12493;SDS011;8260;51.422;6.786;2022-11-15T03:58:08;8.68;;;7.13;;
12493;SDS011;8260;51.422;6.786;2022-11-15T04:00:37;8.60;;;7.70;;
12493;SDS011;8260;51.422;6.786;2022-11-15T04:03:05;9.20;;;7.32;;
12493;SDS011;8260;51.422;6.786;2022-11-15T04:05:36;10.88;;;7.70;;
12493;SDS011;8260;51.422;6.786;2022-11-15T04:08:04;8.18;;;7.07;;
12493;SDS011;8260;51.422;6.786;2022-11-15T04:10:32;9.20;;;7.47;;
12493;SDS011;8260;51.422;6.786;2022-11-15T04:13:01;10.80;;;7.50;;
12493;SDS011;8260;51.422;6.786;2022-11-15T04:15:30;7.40;;;6.63;;
12493;SDS011;8260;51.422;6.786;2022-11-15T04:17:59;13.27;;;7.53;;
12493;SDS011;8260;51.422;6.786;2022-11-15T04:20:28;7.25;;;6.47;;
12493;SDS011;8260;51.422;6.786;2022-11-15T04:23:30;9.10;;;6.75;;
12493;SDS011;8260;51.422;6.786;2022-11-15T04:26:27;7.53;;;6.72;;
12493;SDS011;8260;51.422;6.786;2022-11-15T04:28:56;8.02;;;6.70;;
12493;SDS011;8260;51.422;6.786;2022-11-15T04:31:42;6.82;;;6.03;;
12493;SDS011;8260;51.422;6.786;2022-11-15T04:34:10;8.85;;;6.32;;
12493;SDS011;8260;51.422;6.786;2022-11-15T04:36:39;8.57;;;6.47;;
12493;SDS011;8260;51.422;6.786;2022-11-15T04:39:26;8.45;;;6.72;;
12493;SDS011;8260;51.422;6.786;2022-11-15T04:41:55;6.95;;;6.20;;
12493;SDS011;8260;51.422;6.786;2022-11-15T04:44:23;6.75;;;6.15;;
12493;SDS011;8260;51.422;6.786;2022-11-15T04:46:52;6.75;;;6.00;;
12493;SDS011;8260;51.422;6.786;2022-11-15T04:49:20;8.27;;;6.38;;
12493;SDS011;8260;51.422;6.786;2022-11-15T04:51:48;7.47;;;6.20;;
12493;SDS011;8260;51.422;6.786;2022-11-15T04:54:17;7.13;;;6.32;;
12493;SDS011;8260;51.422;6.786;2022-11-15T04:56:47;6.93;;;6.20;;
12493;SDS011;8260;51.422;6.786;2022-11-15T04:59:15;7.68;;;6.18;;
12493;SDS011;8260;51.422;6.786;2022-11-15T05:01:43;6.93;;;5.63;;
12493;SDS011;8260;51.422;6.786;2022-11-15T05:06:33;7.13;;;5.65;;
12493;SDS011;8260;51.422;6.786;2022-11-15T05:09:02;5.97;;;5.38;;
12493;SDS011;8260;51.422;6.786;2022-11-15T05:11:30;6.22;;;5.57;;
12493;SDS011;8260;51.422;6.786;2022-11-15T05:13:59;6.90;;;5.60;;
12493;SDS011;8260;51.422;6.786;2022-11-15T05:18:26;6.10;;;5.25;;
12493;SDS011;8260;51.422;6.786;2022-11-15T05:20:54;5.55;;;4.88;;
12493;SDS011;8260;51.422;6.786;2022-11-15T05:23:23;5.72;;;5.10;;
12493;SDS011;8260;51.422;6.786;2022-11-15T05:25:51;5.80;;;5.20;;
12493;SDS011;8260;51.422;6.786;2022-11-15T05:28:19;6.25;;;5.30;;
12493;SDS011;8260;51.422;6.786;2022-11-15T05:30:48;6.13;;;5.50;;
12493;SDS011;8260;51.422;6.786;2022-11-15T05:33:16;6.00;;;5.32;;
12493;SDS011;8260;51.422;6.786;2022-11-15T05:35:48;5.75;;;5.22;;
12493;SDS011;8260;51.422;6.786;2022-11-15T05:38:18;6.80;;;5.68;;
12493;SDS011;8260;51.422;6.786;2022-11-15T05:40:47;9.63;;;5.60;;
12493;SDS011;8260;51.422;6.786;2022-11-15T05:43:15;6.53;;;5.93;;
12493;SDS011;8260;51.422;6.786;2022-11-15T05:45:44;8.05;;;6.18;;
12493;SDS011;8260;51.422;6.786;2022-11-15T05:48:12;6.95;;;6.25;;
12493;SDS011;8260;51.422;6.786;2022-11-15T05:50:42;7.38;;;6.63;;
12493;SDS011;8260;51.422;6.786;2022-11-15T05:53:14;6.57;;;5.97;;
12493;SDS011;8260;51.422;6.786;2022-11-15T05:55:44;7.03;;;6.32;;
12493;SDS011;8260;51.422;6.786;2022-11-15T05:58:12;7.88;;;6.68;;
12493;SDS011;8260;51.422;6.786;2022-11-15T06:00:41;8.90;;;6.30;;
12493;SDS011;8260;51.422;6.786;2022-11-15T06:03:09;8.57;;;6.80;;
12493;SDS011;8260;51.422;6.786;2022-11-15T06:05:40;8.25;;;6.22;;
12493;SDS011;8260;51.422;6.786;2022-11-15T06:08:08;7.53;;;6.70;;
12493;SDS011;8260;51.422;6.786;2022-11-15T06:10:38;9.88;;;7.18;;
12493;SDS011;8260;51.422;6.786;2022-11-15T06:13:06;8.40;;;6.95;;
12493;SDS011;8260;51.422;6.786;2022-11-15T06:15:35;8.27;;;7.47;;
12493;SDS011;8260;51.422;6.786;2022-11-15T06:18:03;8.27;;;7.47;;
12493;SDS011;8260;51.422;6.786;2022-11-15T06:20:32;8.20;;;7.38;;
12493;SDS011;8260;51.422;6.786;2022-11-15T06:23:01;11.68;;;7.35;;
12493;SDS011;8260;51.422;6.786;2022-11-15T06:25:30;8.38;;;6.68;;
12493;SDS011;8260;51.422;6.786;2022-11-15T06:28:00;7.78;;;6.88;;
12493;SDS011;8260;51.422;6.786;2022-11-15T06:30:28;8.07;;;6.63;;
12493;SDS011;8260;51.422;6.786;2022-11-15T06:33:00;7.63;;;6.57;;
12493;SDS011;8260;51.422;6.786;2022-11-15T06:35:29;8.00;;;6.55;;
12493;SDS011;8260;51.422;6.786;2022-11-15T06:38:01;8.98;;;6.47;;
12493;SDS011;8260;51.422;6.786;2022-11-15T06:40:29;7.53;;;6.20;;
12493;SDS011;8260;51.422;6.786;2022-11-15T06:42:59;7.53;;;6.22;;
12493;SDS011;8260;51.422;6.786;2022-11-15T06:45:28;6.93;;;6.15;;
12493;SDS011;8260;51.422;6.786;2022-11-15T06:47:57;10.35;;;6.15;;
12493;SDS011;8260;51.422;6.786;2022-11-15T06:50:26;8.13;;;6.15;;
12493;SDS011;8260;51.422;6.786;2022-11-15T06:52:55;7.10;;;5.65;;
12493;SDS011;8260;51.422;6.786;2022-11-15T06:55:23;7.20;;;5.88;;
12493;SDS011;8260;51.422;6.786;2022-11-15T06:57:52;6.78;;;6.15;;
12493;SDS011;8260;51.422;6.786;2022-11-15T07:00:22;6.85;;;5.47;;
12493;SDS011;8260;51.422;6.786;2022-11-15T07:02:50;6.70;;;5.97;;
12493;SDS011;8260;51.422;6.786;2022-11-15T07:05:19;6.45;;;5.65;;
12493;SDS011;8260;51.422;6.786;2022-11-15T07:07:53;6.78;;;5.80;;
12493;SDS011;8260;51.422;6.786;2022-11-15T07:10:22;7.90;;;5.78;;
12493;SDS011;8260;51.422;6.786;2022-11-15T07:12:51;6.65;;;5.72;;
12493;SDS011;8260;51.422;6.786;2022-11-15T07:15:22;7.05;;;5.85;;
12493;SDS011;8260;51.422;6.786;2022-11-15T07:17:50;6.18;;;5.60;;
12493;SDS011;8260;51.422;6.786;2022-11-15T07:20:19;5.93;;;5.32;;
12493;SDS011;8260;51.422;6.786;2022-11-15T07:22:47;7.20;;;5.78;;
12493;SDS011;8260;51.422;6.786;2022-11-15T07:25:16;6.85;;;5.47;;
12493;SDS011;8260;51.422;6.786;2022-11-15T07:27:53;5.78;;;5.15;;
12493;SDS011;8260;51.422;6.786;2022-11-15T07:30:23;5.45;;;4.95;;
12493;SDS011;8260;51.422;6.786;2022-11-15T07:32:53;5.88;;;4.85;;
12493;SDS011;8260;51.422;6.786;2022-11-15T07:35:21;5.95;;;4.80;;
12493;SDS011;8260;51.422;6.786;2022-11-15T07:37:53;6.00;;;4.40;;
12493;SDS011;8260;51.422;6.786;2022-11-15T07:40:22;7.25;;;4.90;;
12493;SDS011;8260;51.422;6.786;2022-11-15T07:42:50;4.82;;;4.32;;
12493;SDS011;8260;51.422;6.786;2022-11-15T07:45:24;4.75;;;4.35;;
12493;SDS011;8260;51.422;6.786;2022-11-15T07:47:53;4.57;;;4.13;;
12493;SDS011;8260;51.422;6.786;2022-11-15T07:50:22;4.70;;;4.30;;
12493;SDS011;8260;51.422;6.786;2022-11-15T07:52:54;5.38;;;4.00;;
12493;SDS011;8260;51.422;6.786;2022-11-15T07:55:22;3.80;;;3.45;;
12493;SDS011;8260;51.422;6.786;2022-11-15T07:57:51;4.57;;;4.07;;
12493;SDS011;8260;51.422;6.786;2022-11-15T08:00:19;3.78;;;3.45;;
12493;SDS011;8260;51.422;6.786;2022-11-15T08:02:49;2.92;;;2.63;;
12493;SDS011;8260;51.422;6.786;2022-11-15T08:05:18;3.85;;;2.65;;
12493;SDS011;8260;51.422;6.786;2022-11-15T08:07:46;2.10;;;1.80;;
12493;SDS011;8260;51.422;6.786;2022-11-15T08:10:17;2.22;;;2.03;;
12493;SDS011;8260;51.422;6.786;2022-11-15T08:12:46;4.45;;;2.22;;
12493;SDS011;8260;51.422;6.786;2022-11-15T08:15:15;3.35;;;1.90;;
12493;SDS011;8260;51.422;6.786;2022-11-15T08:17:43;1.80;;;1.67;;
12493;SDS011;8260;51.422;6.786;2022-11-15T08:20:13;2.33;;;1.58;;
12493;SDS011;8260;51.422;6.786;2022-11-15T08:22:42;1.88;;;1.30;;
12493;SDS011;8260;51.422;6.786;2022-11-15T08:25:11;3.30;;;1.50;;
12493;SDS011;8260;51.422;6.786;2022-11-15T08:27:42;1.45;;;1.35;;
12493;SDS011;8260;51.422;6.786;2022-11-15T08:30:11;1.42;;;1.33;;
12493;SDS011;8260;51.422;6.786;2022-11-15T08:32:42;3.75;;;1.60;;
12493;SDS011;8260;51.422;6.786;2022-11-15T08:35:10;1.50;;;1.10;;
12493;SDS011;8260;51.422;6.786;2022-11-15T08:37:40;1.48;;;1.15;;
12493;SDS011;8260;51.422;6.786;2022-11-15T08:40:09;1.55;;;1.10;;
12493;SDS011;8260;51.422;6.786;2022-11-15T08:42:37;2.50;;;1.13;;
12493;SDS011;8260;51.422;6.786;2022-11-15T08:45:06;3.13;;;1.30;;
12493;SDS011;8260;51.422;6.786;2022-11-15T08:47:35;2.88;;;1.20;;
12493;SDS011;8260;51.422;6.786;2022-11-15T08:50:04;2.50;;;1.50;;
12493;SDS011;8260;51.422;6.786;2022-11-15T08:52:32;1.58;;;1.48;;
12493;SDS011;8260;51.422;6.786;2022-11-15T08:55:02;1.42;;;1.33;;
12493;SDS011;8260;51.422;6.786;2022-11-15T08:57:31;1.85;;;1.50;;
12493;SDS011;8260;51.422;6.786;2022-11-15T08:59:59;1.42;;;1.20;;
12493;SDS011;8260;51.422;6.786;2022-11-15T09:02:28;1.70;;;1.58;;
12493;SDS011;8260;51.422;6.786;2022-11-15T09:04:56;4.18;;;1.55;;
12493;SDS011;8260;51.422;6.786;2022-11-15T09:07:24;2.15;;;1.77;;
12493;SDS011;8260;51.422;6.786;2022-11-15T09:09:56;2.92;;;2.10;;
12493;SDS011;8260;51.422;6.786;2022-11-15T09:12:26;2.63;;;2.00;;
12493;SDS011;8260;51.422;6.786;2022-11-15T09:14:54;2.53;;;2.00;;
12493;SDS011;8260;51.422;6.786;2022-11-15T09:17:23;2.92;;;2.13;;
12493;SDS011;8260;51.422;6.786;2022-11-15T09:19:51;2.30;;;2.10;;
12493;SDS011;8260;51.422;6.786;2022-11-15T09:22:19;2.95;;;2.60;;
12493;SDS011;8260;51.422;6.786;2022-11-15T09:24:48;2.85;;;2.50;;
12493;SDS011;8260;51.422;6.786;2022-11-15T09:27:16;3.95;;;3.05;;
12493;SDS011;8260;51.422;6.786;2022-11-15T09:29:46;4.43;;;2.85;;
12493;SDS011;8260;51.422;6.786;2022-11-15T09:32:15;4.63;;;3.00;;
12493;SDS011;8260;51.422;6.786;2022-11-15T09:34:44;4.03;;;3.40;;
12493;SDS011;8260;51.422;6.786;2022-11-15T09:37:12;6.05;;;3.05;;
12493;SDS011;8260;51.422;6.786;2022-11-15T09:39:41;3.67;;;3.08;;
12493;SDS011;8260;51.422;6.786;2022-11-15T09:42:18;5.45;;;2.78;;
12493;SDS011;8260;51.422;6.786;2022-11-15T09:44:59;3.20;;;2.90;;
12493;SDS011;8260;51.422;6.786;2022-11-15T09:47:40;3.65;;;2.65;;
12493;SDS011;8260;51.422;6.786;2022-11-15T09:50:27;3.97;;;2.28;;
12493;SDS011;8260;51.422;6.786;2022-11-15T09:52:57;3.20;;;2.55;;
12493;SDS011;8260;51.422;6.786;2022-11-15T09:55:29;3.38;;;2.70;;
12493;SDS011;8260;51.422;6.786;2022-11-15T09:58:00;3.22;;;2.00;;
12493;SDS011;8260;51.422;6.786;2022-11-15T10:00:33;2.85;;;1.98;;
12493;SDS011;8260;51.422;6.786;2022-11-15T10:03:13;3.00;;;2.10;;
12493;SDS011;8260;51.422;6.786;2022-11-15T10:05:44;2.17;;;1.98;;
12493;SDS011;8260;51.422;6.786;2022-11-15T10:08:19;4.13;;;1.92;;
12493;SDS011;8260;51.422;6.786;2022-11-15T10:10:51;2.45;;;1.48;;
12493;SDS011;8260;51.422;6.786;2022-11-15T10:13:41;2.75;;;1.75;;
12493;SDS011;8260;51.422;6.786;2022-11-15T10:16:16;5.32;;;1.80;;
12493;SDS011;8260;51.422;6.786;2022-11-15T10:18:52;3.40;;;1.88;;
12493;SDS011;8260;51.422;6.786;2022-11-15T10:21:25;2.42;;;1.55;;
12493;SDS011;8260;51.422;6.786;2022-11-15T10:23:57;3.08;;;1.60;;
12493;SDS011;8260;51.422;6.786;2022-11-15T10:26:25;2.65;;;2.08;;
12493;SDS011;8260;51.422;6.786;2022-11-15T10:28:54;2.42;;;1.45;;
12493;SDS011;8260;51.422;6.786;2022-11-15T10:31:25;1.73;;;1.63;;
12493;SDS011;8260;51.422;6.786;2022-11-15T10:33:57;2.92;;;1.63;;
12493;SDS011;8260;51.422;6.786;2022-11-15T10:36:27;2.58;;;1.90;;
12493;SDS011;8260;51.422;6.786;2022-11-15T10:38:56;2.20;;;1.45;;
12493;SDS011;8260;51.422;6.786;2022-11-15T10:41:37;1.90;;;1.58;;
12493;SDS011;8260;51.422;6.786;2022-11-15T10:44:17;4.38;;;1.90;;
12493;SDS011;8260;51.422;6.786;2022-11-15T10:46:48;2.45;;;1.35;;
12493;SDS011;8260;51.422;6.786;2022-11-15T10:49:17;3.67;;;1.50;;
12493;SDS011;8260;51.422;6.786;2022-11-15T10:51:46;2.75;;;1.63;;
12493;SDS011;8260;51.422;6.786;2022-11-15T10:54:19;1.80;;;1.30;;
12493;SDS011;8260;51.422;6.786;2022-11-15T10:56:50;3.97;;;1.77;;
12493;SDS011;8260;51.422;6.786;2022-11-15T10:59:21;2.97;;;2.00;;
12493;SDS011;8260;51.422;6.786;2022-11-15T11:01:53;3.25;;;1.65;;
12493;SDS011;8260;51.422;6.786;2022-11-15T11:04:21;1.83;;;1.38;;
12493;SDS011;8260;51.422;6.786;2022-11-15T11:06:50;3.35;;;1.63;;
12493;SDS011;8260;51.422;6.786;2022-11-15T11:09:23;2.92;;;1.60;;
12493;SDS011;8260;51.422;6.786;2022-11-15T11:11:53;1.92;;;1.30;;
12493;SDS011;8260;51.422;6.786;2022-11-15T11:14:22;1.90;;;1.40;;
12493;SDS011;8260;51.422;6.786;2022-11-15T11:16:55;3.40;;;1.40;;
12493;SDS011;8260;51.422;6.786;2022-11-15T11:19:39;1.70;;;1.30;;
12493;SDS011;8260;51.422;6.786;2022-11-15T11:22:12;2.53;;;1.33;;
12493;SDS011;8260;51.422;6.786;2022-11-15T11:24:45;2.45;;;1.40;;
12493;SDS011;8260;51.422;6.786;2022-11-15T11:27:22;3.08;;;1.30;;
12493;SDS011;8260;51.422;6.786;2022-11-15T11:29:57;2.50;;;1.33;;
12493;SDS011;8260;51.422;6.786;2022-11-15T11:32:34;2.55;;;1.23;;
12493;SDS011;8260;51.422;6.786;2022-11-15T11:35:09;1.60;;;1.27;;
12493;SDS011;8260;51.422;6.786;2022-11-15T11:37:42;1.52;;;1.10;;
12493;SDS011;8260;51.422;6.786;2022-11-15T11:40:20;2.13;;;1.25;;
12493;SDS011;8260;51.422;6.786;2022-11-15T11:42:52;6.40;;;1.50;;
12493;SDS011;8260;51.422;6.786;2022-11-15T11:45:28;2.28;;;1.40;;
12493;SDS011;8260;51.422;6.786;2022-11-15T11:48:03;1.30;;;1.20;;
12493;SDS011;8260;51.422;6.786;2022-11-15T11:50:36;1.70;;;1.30;;
12493;SDS011;8260;51.422;6.786;2022-11-15T11:53:09;1.63;;;1.38;;
12493;SDS011;8260;51.422;6.786;2022-11-15T11:55:40;1.90;;;1.30;;
12493;SDS011;8260;51.422;6.786;2022-11-15T11:58:11;1.92;;;1.50;;
12493;SDS011;8260;51.422;6.786;2022-11-15T12:00:40;2.33;;;1.30;;
12493;SDS011;8260;51.422;6.786;2022-11-15T12:03:14;1.80;;;1.42;;
12493;SDS011;8260;51.422;6.786;2022-11-15T12:05:48;1.58;;;1.15;;
12493;SDS011;8260;51.422;6.786;2022-11-15T12:08:22;2.20;;;1.50;;
12493;SDS011;8260;51.422;6.786;2022-11-15T12:10:53;3.22;;;1.48;;
12493;SDS011;8260;51.422;6.786;2022-11-15T12:13:24;2.13;;;1.30;;
12493;SDS011;8260;51.422;6.786;2022-11-15T12:15:56;2.53;;;1.20;;
12493;SDS011;8260;51.422;6.786;2022-11-15T12:18:31;1.88;;;1.50;;
12493;SDS011;8260;51.422;6.786;2022-11-15T12:21:02;1.88;;;1.20;;
12493;SDS011;8260;51.422;6.786;2022-11-15T12:23:35;2.17;;;1.30;;
12493;SDS011;8260;51.422;6.786;2022-11-15T12:26:06;1.98;;;1.42;;
12493;SDS011;8260;51.422;6.786;2022-11-15T12:28:37;2.03;;;1.30;;
12493;SDS011;8260;51.422;6.786;2022-11-15T12:31:29;4.07;;;1.52;;
12493;SDS011;8260;51.422;6.786;2022-11-15T12:34:03;1.83;;;1.20;;
12493;SDS011;8260;51.422;6.786;2022-11-15T12:36:36;2.53;;;1.40;;
12493;SDS011;8260;51.422;6.786;2022-11-15T12:39:06;2.65;;;1.30;;
12493;SDS011;8260;51.422;6.786;2022-11-15T12:41:35;1.42;;;1.08;;
12493;SDS011;8260;51.422;6.786;2022-11-15T12:44:04;4.00;;;1.30;;
12493;SDS011;8260;51.422;6.786;2022-11-15T12:52:13;1.98;;;1.17;;
12493;SDS011;8260;51.422;6.786;2022-11-15T12:54:58;3.53;;;1.60;;
12493;SDS011;8260;51.422;6.786;2022-11-15T12:57:32;2.15;;;1.30;;
12493;SDS011;8260;51.422;6.786;2022-11-15T13:00:01;4.28;;;1.35;;
12493;SDS011;8260;51.422;6.786;2022-11-15T13:02:31;2.92;;;1.50;;
12493;SDS011;8260;51.422;6.786;2022-11-15T13:07:58;2.50;;;1.10;;
12493;SDS011;8260;51.422;6.786;2022-11-15T13:10:30;3.08;;;1.20;;
12493;SDS011;8260;51.422;6.786;2022-11-15T13:13:00;3.47;;;1.45;;
12493;SDS011;8260;51.422;6.786;2022-11-15T13:18:26;4.03;;;1.15;;
12493;SDS011;8260;51.422;6.786;2022-11-15T13:20:56;3.13;;;1.20;;
12493;SDS011;8260;51.422;6.786;2022-11-15T13:23:29;3.17;;;1.63;;
12493;SDS011;8260;51.422;6.786;2022-11-15T13:26:07;5.10;;;1.30;;
12493;SDS011;8260;51.422;6.786;2022-11-15T13:28:38;1.83;;;1.50;;
12493;SDS011;8260;51.422;6.786;2022-11-15T13:31:22;3.85;;;1.05;;
12493;SDS011;8260;51.422;6.786;2022-11-15T13:33:51;3.42;;;1.30;;
12493;SDS011;8260;51.422;6.786;2022-11-15T13:36:21;3.53;;;2.05;;
12493;SDS011;8260;51.422;6.786;2022-11-15T13:38:58;7.22;;;3.80;;
12493;SDS011;8260;51.422;6.786;2022-11-15T13:41:28;7.32;;;4.70;;
12493;SDS011;8260;51.422;6.786;2022-11-15T13:43:57;9.43;;;5.70;;
12493;SDS011;8260;51.422;6.786;2022-11-15T13:46:26;2.53;;;2.10;;
12493;SDS011;8260;51.422;6.786;2022-11-15T13:48:57;2.50;;;1.80;;
12493;SDS011;8260;51.422;6.786;2022-11-15T13:51:29;2.63;;;1.52;;
12493;SDS011;8260;51.422;6.786;2022-11-15T13:54:01;3.72;;;1.40;;
12493;SDS011;8260;51.422;6.786;2022-11-15T13:56:30;1.65;;;1.20;;
12493;SDS011;8260;51.422;6.786;2022-11-15T13:59:00;1.30;;;1.20;;
12493;SDS011;8260;51.422;6.786;2022-11-15T14:01:29;4.25;;;1.58;;
12493;SDS011;8260;51.422;6.786;2022-11-15T14:03:59;4.18;;;1.40;;
12493;SDS011;8260;51.422;6.786;2022-11-15T14:06:29;1.70;;;1.30;;
12493;SDS011;8260;51.422;6.786;2022-11-15T14:09:04;2.78;;;1.27;;
12493;SDS011;8260;51.422;6.786;2022-11-15T14:11:49;3.80;;;1.17;;
12493;SDS011;8260;51.422;6.786;2022-11-15T14:14:19;2.97;;;1.30;;
12493;SDS011;8260;51.422;6.786;2022-11-15T14:16:49;2.17;;;1.38;;
12493;SDS011;8260;51.422;6.786;2022-11-15T14:19:33;4.78;;;1.40;;
12493;SDS011;8260;51.422;6.786;2022-11-15T14:22:09;3.80;;;1.40;;
12493;SDS011;8260;51.422;6.786;2022-11-15T14:24:39;2.78;;;1.30;;
12493;SDS011;8260;51.422;6.786;2022-11-15T14:27:21;3.83;;;1.17;;
12493;SDS011;8260;51.422;6.786;2022-11-15T14:29:50;2.63;;;1.40;;
12493;SDS011;8260;51.422;6.786;2022-11-15T14:32:19;4.10;;;1.35;;
12493;SDS011;8260;51.422;6.786;2022-11-15T14:34:48;4.60;;;1.45;;
12493;SDS011;8260;51.422;6.786;2022-11-15T14:37:19;4.20;;;1.20;;
12493;SDS011;8260;51.422;6.786;2022-11-15T14:39:49;2.38;;;1.17;;
12493;SDS011;8260;51.422;6.786;2022-11-15T14:42:18;5.00;;;1.50;;
12493;SDS011;8260;51.422;6.786;2022-11-15T14:44:47;4.10;;;1.60;;
12493;SDS011;8260;51.422;6.786;2022-11-15T14:47:15;2.78;;;1.35;;
12493;SDS011;8260;51.422;6.786;2022-11-15T14:49:44;1.90;;;1.52;;
12493;SDS011;8260;51.422;6.786;2022-11-15T14:55:02;6.47;;;4.10;;
12493;SDS011;8260;51.422;6.786;2022-11-15T14:57:32;14.50;;;9.45;;
12493;SDS011;8260;51.422;6.786;2022-11-15T15:00:01;8.52;;;5.55;;
12493;SDS011;8260;51.422;6.786;2022-11-15T15:02:30;6.30;;;4.03;;
12493;SDS011;8260;51.422;6.786;2022-11-15T15:04:59;4.15;;;2.30;;
12493;SDS011;8260;51.422;6.786;2022-11-15T15:07:29;3.58;;;2.17;;
12493;SDS011;8260;51.422;6.786;2022-11-15T15:09:57;3.90;;;2.63;;
12493;SDS011;8260;51.422;6.786;2022-11-15T15:12:47;2.53;;;2.15;;
12493;SDS011;8260;51.422;6.786;2022-11-15T15:15:16;3.75;;;2.00;;
12493;SDS011;8260;51.422;6.786;2022-11-15T15:17:45;2.83;;;1.85;;
12493;SDS011;8260;51.422;6.786;2022-11-15T15:20:14;2.67;;;1.92;;
12493;SDS011;8260;51.422;6.786;2022-11-15T15:22:43;3.00;;;1.90;;
12493;SDS011;8260;51.422;6.786;2022-11-15T15:25:19;4.47;;;2.17;;
12493;SDS011;8260;51.422;6.786;2022-11-15T15:27:49;6.85;;;2.30;;
12493;SDS011;8260;51.422;6.786;2022-11-15T15:30:18;2.78;;;2.50;;
12493;SDS011;8260;51.422;6.786;2022-11-15T15:32:46;5.07;;;2.30;;
12493;SDS011;8260;51.422;6.786;2022-11-15T15:35:15;2.72;;;2.28;;
12493;SDS011;8260;51.422;6.786;2022-11-15T15:37:44;3.72;;;2.55;;
12493;SDS011;8260;51.422;6.786;2022-11-15T15:40:15;3.75;;;2.28;;
12493;SDS011;8260;51.422;6.786;2022-11-15T15:42:44;3.00;;;2.10;;
12493;SDS011;8260;51.422;6.786;2022-11-15T15:45:14;2.47;;;2.22;;